createdAt,value
2014-12-31T14:31:45.295Z,263
2014-12-31T14:32:03.623Z,270
2014-12-31T14:32:22.279Z,253
2014-12-31T14:32:40.890Z,270
2014-12-31T14:32:59.625Z,275
2014-12-31T14:33:18.375Z,142
2014-12-31T14:33:36.953Z,240
2014-12-31T14:33:55.362Z,234
2014-12-31T14:34:14.159Z,240
2014-12-31T14:34:32.518Z,252
2014-12-31T14:34:50.989Z,231
2014-12-31T14:35:09.505Z,251
2014-12-31T14:35:28.036Z,228
2014-12-31T14:35:46.567Z,235
2014-12-31T14:36:04.960Z,237
2014-12-31T14:36:23.429Z,253
2014-12-31T14:36:42.054Z,252
2014-12-31T14:37:00.775Z,247
2014-12-31T14:37:19.557Z,237
2014-12-31T14:37:37.947Z,226
2014-12-31T14:37:56.603Z,238
2014-12-31T14:38:15.137Z,230
2014-12-31T14:38:33.730Z,253
2014-12-31T14:38:52.715Z,238
2014-12-31T14:39:10.437Z,239
2014-12-31T14:39:28.796Z,239
2014-12-31T14:39:47.171Z,223
2014-12-31T14:40:05.657Z,246
2014-12-31T14:40:23.985Z,229
2014-12-31T14:40:42.501Z,244
2014-12-31T14:41:01.032Z,228
2014-12-31T14:41:19.707Z,254
2014-12-31T14:41:38.051Z,221
2014-12-31T14:41:57.145Z,230
2014-12-31T14:42:15.100Z,236
2014-12-31T14:42:33.694Z,227
2014-12-31T14:42:52.381Z,225
2014-12-31T14:43:11.008Z,228
2014-12-31T14:43:29.555Z,236
2014-12-31T14:43:47.867Z,220
2014-12-31T14:44:06.180Z,227
2014-12-31T14:44:24.511Z,228
2014-12-31T14:44:42.839Z,225
2014-12-31T14:45:01.355Z,222
2014-12-31T14:45:19.872Z,248
2014-12-31T14:45:38.294Z,234
2014-12-31T14:45:56.685Z,226
2014-12-31T14:46:15.310Z,228
2014-12-31T14:46:34.031Z,218
2014-12-31T14:46:52.562Z,235
2014-12-31T14:47:11.015Z,247
2014-12-31T14:47:29.582Z,218
2014-12-31T14:47:47.957Z,241
2014-12-31T14:48:06.269Z,301
2014-12-31T14:48:24.191Z,278
2014-12-31T14:48:42.630Z,281
2014-12-31T14:49:01.068Z,251
2014-12-31T14:49:19.568Z,250
2014-12-31T14:49:37.992Z,261
2014-12-31T14:49:56.320Z,289
2014-12-31T14:50:14.804Z,273
2014-12-31T14:50:33.570Z,268
2014-12-31T14:50:55.509Z,295
2014-12-31T14:51:14.134Z,282
2014-12-31T14:51:32.556Z,241
2014-12-31T14:51:51.059Z,226
2014-12-31T14:52:09.778Z,278
2014-12-31T14:52:27.559Z,289
2014-12-31T14:52:46.297Z,253
2014-12-31T14:53:04.609Z,248
2014-12-31T14:53:22.922Z,266
2014-12-31T14:53:41.437Z,260
2014-12-31T14:54:00.017Z,259
2014-12-31T14:54:18.346Z,287
2014-12-31T14:54:36.752Z,265
2014-12-31T14:54:55.144Z,296
2014-12-31T14:55:13.504Z,249
2014-12-31T14:55:32.082Z,259
2014-12-31T14:55:50.459Z,273
2014-12-31T14:56:09.240Z,258
2014-12-31T14:56:28.100Z,253
2014-12-31T14:56:46.446Z,279
2014-12-31T14:57:04.899Z,256
2014-12-31T14:57:23.446Z,268
2014-12-31T14:57:41.978Z,287
2014-12-31T14:58:00.668Z,263
2014-12-31T14:58:18.981Z,248
2014-12-31T14:58:37.637Z,243
2014-12-31T14:58:56.358Z,269
2014-12-31T14:59:14.842Z,273
2014-12-31T14:59:33.451Z,273
2014-12-31T14:59:51.983Z,252
2014-12-31T15:00:10.391Z,265
2014-12-31T15:00:28.781Z,292
2014-12-31T15:00:47.360Z,286
2014-12-31T15:01:05.940Z,268
2014-12-31T15:01:24.721Z,258
2014-12-31T15:01:43.096Z,272
2014-12-31T15:02:01.612Z,244
2014-12-31T15:02:20.224Z,268
2014-12-31T15:02:39.224Z,251
2014-12-31T15:02:57.849Z,290
2014-12-31T15:03:16.398Z,254
2014-12-31T15:03:35.085Z,288
2014-12-31T15:03:53.960Z,252
2014-12-31T15:04:12.479Z,264
2014-12-31T15:04:30.854Z,251
2014-12-31T15:04:49.370Z,257
2014-12-31T15:05:07.885Z,285
2014-12-31T15:05:26.309Z,239
2014-12-31T15:05:44.809Z,271
2014-12-31T15:06:03.434Z,277
2014-12-31T15:06:22.343Z,267
2014-12-31T15:06:40.250Z,285
2014-12-31T15:06:58.984Z,252
2014-12-31T15:07:17.736Z,248
2014-12-31T15:07:36.548Z,275
2014-12-31T15:07:55.142Z,303
2014-12-31T15:08:13.800Z,256
2014-12-31T15:08:32.269Z,295
2014-12-31T15:08:50.941Z,273
2014-12-31T15:09:09.363Z,273
2014-12-31T15:09:27.724Z,282
2014-12-31T15:09:46.068Z,292
2014-12-31T15:10:04.521Z,242
2014-12-31T15:10:22.993Z,291
2014-12-31T15:11:45.682Z,329
2014-12-31T15:12:04.011Z,362
2014-12-31T15:12:22.339Z,320
2014-12-31T15:12:40.935Z,367
2014-12-31T15:12:59.435Z,315
2014-12-31T15:13:18.076Z,392
2014-12-31T15:13:36.437Z,314
2014-12-31T15:13:54.828Z,357
2014-12-31T15:14:13.437Z,384
2014-12-31T15:14:32.144Z,328
2014-12-31T15:14:50.628Z,311
2014-12-31T15:15:09.128Z,339
2014-12-31T15:15:27.612Z,350
2014-12-31T15:15:46.333Z,337
2014-12-31T15:16:04.005Z,392
2014-12-31T15:16:22.396Z,349
2014-12-31T15:16:41.038Z,379
2014-12-31T15:16:59.476Z,309
2014-12-31T15:17:17.913Z,354
2014-12-31T15:17:36.226Z,355
2014-12-31T15:17:54.697Z,327
2014-12-31T15:18:13.026Z,343
2014-12-31T15:18:31.526Z,360
2014-12-31T15:18:49.949Z,342
2014-12-31T15:19:08.387Z,327
2014-12-31T15:19:27.074Z,340
2014-12-31T15:19:45.668Z,369
2014-12-31T15:20:04.077Z,343
2014-12-31T15:20:22.390Z,383
2014-12-31T15:20:40.734Z,325
2014-12-31T15:20:59.112Z,369
2014-12-31T15:21:17.674Z,339
2014-12-31T15:21:36.002Z,369
2014-12-31T15:21:54.346Z,333
2014-12-31T15:22:12.989Z,340
2014-12-31T15:22:34.911Z,375
2014-12-31T15:22:53.270Z,377
2014-12-31T15:23:11.820Z,362
2014-12-31T15:23:30.460Z,302
2014-12-31T15:23:48.945Z,386
2014-12-31T15:24:07.712Z,361
2014-12-31T15:24:26.400Z,301
2014-12-31T15:24:44.822Z,318
2014-12-31T15:25:03.384Z,343
2014-12-31T15:25:21.761Z,347
2014-12-31T15:25:40.355Z,302
2014-12-31T15:25:59.308Z,335
2014-12-31T15:26:17.888Z,360
2014-12-31T15:26:36.404Z,317
2014-12-31T15:26:55.013Z,377
2014-12-31T15:27:13.329Z,381
2014-12-31T15:27:31.704Z,307
2014-12-31T15:27:50.266Z,375
2014-12-31T15:28:08.596Z,305
2014-12-31T15:28:27.112Z,354
2014-12-31T15:28:45.487Z,347
2014-12-31T15:29:04.018Z,310
2014-12-31T15:29:22.552Z,299
2014-12-31T15:29:40.911Z,360
2014-12-31T15:29:59.583Z,342
2014-12-31T15:30:18.414Z,376
2014-12-31T15:30:37.023Z,304
2014-12-31T15:30:55.664Z,326
2014-12-31T15:31:14.322Z,326
2014-12-31T15:31:32.807Z,383
2014-12-31T15:31:51.525Z,327
2014-12-31T15:32:10.244Z,322
2014-12-31T15:32:28.872Z,367
2014-12-31T15:32:47.450Z,379
2014-12-31T15:33:06.169Z,358
2014-12-31T15:33:24.577Z,371
2014-12-31T15:33:43.249Z,299
2014-12-31T15:34:01.780Z,296
2014-12-31T15:34:23.437Z,313
2014-12-31T15:34:42.158Z,370
2014-12-31T15:35:00.940Z,345
2014-12-31T15:35:19.565Z,321
2014-12-31T15:35:37.942Z,380
2014-12-31T15:35:56.535Z,322
2014-12-31T15:36:15.160Z,339
2014-12-31T15:36:33.631Z,332
2014-12-31T15:36:52.131Z,295
2014-12-31T15:37:10.537Z,298
2014-12-31T15:37:29.165Z,303
2014-12-31T15:37:47.915Z,346
2014-12-31T15:38:06.415Z,341
2014-12-31T15:38:24.931Z,379
2014-12-31T15:38:43.433Z,356
2014-12-31T15:39:02.105Z,343
2014-12-31T15:39:20.667Z,342
2014-12-31T15:39:39.232Z,338
2014-12-31T15:39:57.826Z,305
2014-12-31T15:40:16.591Z,300
2014-12-31T15:40:35.000Z,322
2014-12-31T15:40:53.438Z,336
2014-12-31T15:41:12.047Z,349
2014-12-31T15:41:30.672Z,296
2014-12-31T15:41:49.565Z,318
2014-12-31T15:42:08.002Z,314
2014-12-31T15:42:26.674Z,320
2014-12-31T15:42:45.348Z,293
2014-12-31T15:43:04.020Z,351
2014-12-31T15:43:22.411Z,379
2014-12-31T15:43:40.833Z,303
2014-12-31T15:44:00.007Z,310
2014-12-31T15:44:18.695Z,375
2014-12-31T15:44:37.226Z,375
2014-12-31T15:44:55.650Z,338
2014-12-31T15:45:14.416Z,292
2014-12-31T15:45:33.056Z,395
2014-12-31T15:45:51.791Z,424
2014-12-31T15:46:10.543Z,490
2014-12-31T15:46:29.011Z,494
2014-12-31T15:46:47.418Z,425
2014-12-31T15:47:06.218Z,397
2014-12-31T15:47:24.686Z,436
2014-12-31T15:47:42.483Z,485
2014-12-31T15:48:01.049Z,431
2014-12-31T15:48:19.846Z,435
2014-12-31T15:48:38.424Z,470
2014-12-31T15:48:56.877Z,443
2014-12-31T15:49:15.269Z,484
2014-12-31T15:49:33.941Z,439
2014-12-31T15:49:52.894Z,476
2014-12-31T15:50:11.601Z,487
2014-12-31T15:50:30.132Z,423
2014-12-31T15:50:48.476Z,480
2014-12-31T15:51:06.899Z,463
2014-12-31T15:51:25.556Z,497
2014-12-31T15:51:44.040Z,456
2014-12-31T15:52:02.464Z,446
2014-12-31T15:52:21.386Z,448
2014-12-31T15:52:39.948Z,406
2014-12-31T15:52:58.401Z,454
2014-12-31T15:53:16.810Z,453
2014-12-31T15:53:34.528Z,450
2014-12-31T15:53:53.075Z,471
2014-12-31T15:54:10.766Z,436
2014-12-31T15:54:29.594Z,486
2014-12-31T15:54:48.156Z,477
2014-12-31T15:55:06.502Z,436
2014-12-31T15:55:25.018Z,406
2014-12-31T15:55:43.580Z,436
2014-12-31T15:56:02.096Z,420
2014-12-31T15:56:20.598Z,481
2014-12-31T15:56:38.926Z,454
2014-12-31T15:56:56.989Z,466
2014-12-31T15:57:15.445Z,475
2014-12-31T15:57:33.960Z,496
2014-12-31T15:57:52.351Z,448
2014-12-31T15:58:10.837Z,444
2014-12-31T15:58:29.384Z,495
2014-12-31T15:58:47.806Z,421
2014-12-31T15:59:06.354Z,451
2014-12-31T15:59:25.089Z,461
2014-12-31T15:59:43.714Z,402
2014-12-31T16:00:02.104Z,417
2014-12-31T16:00:20.485Z,433
2014-12-31T16:00:38.953Z,483
2014-12-31T16:00:57.672Z,449
2014-12-31T16:01:16.238Z,440
2014-12-31T16:01:34.910Z,448
2014-12-31T16:01:53.660Z,453
2014-12-31T16:02:12.301Z,400
2014-12-31T16:02:30.713Z,461
2014-12-31T16:02:49.057Z,417
2014-12-31T16:03:07.526Z,473
2014-12-31T16:03:26.340Z,452
2014-12-31T16:03:44.652Z,430
2014-12-31T16:04:03.090Z,497
2014-12-31T16:04:21.621Z,487
2014-12-31T16:04:40.474Z,456
2014-12-31T16:04:59.364Z,442
2014-12-31T16:05:18.052Z,403
2014-12-31T16:05:36.436Z,471
2014-12-31T16:05:55.123Z,486
2014-12-31T16:06:13.451Z,419
2014-12-31T16:06:31.983Z,482
2014-12-31T16:06:50.524Z,434
2014-12-31T16:07:09.243Z,410
2014-12-31T16:07:27.852Z,430
2014-12-31T16:07:46.516Z,465
2014-12-31T16:08:04.860Z,480
2014-12-31T16:08:23.485Z,401
2014-12-31T16:08:42.219Z,489
2014-12-31T16:09:00.570Z,462
2014-12-31T16:09:19.289Z,394
2014-12-31T16:09:37.961Z,442
2014-12-31T16:09:56.575Z,490
2014-12-31T16:10:14.981Z,450
2014-12-31T16:10:33.528Z,438
2014-12-31T16:10:51.872Z,432
2014-12-31T16:11:10.472Z,440
2014-12-31T16:11:28.940Z,486
2014-12-31T16:11:46.956Z,451
2014-12-31T16:12:05.491Z,467
2014-12-31T16:12:23.866Z,436
2014-12-31T16:12:42.179Z,458
2014-12-31T16:13:00.558Z,402
2014-12-31T16:13:19.073Z,419
2014-12-31T16:13:37.730Z,407
2014-12-31T16:13:56.480Z,480
2014-12-31T16:14:14.843Z,495
2014-12-31T16:14:33.312Z,421
2014-12-31T16:14:52.093Z,466
2014-12-31T16:15:10.549Z,420
2014-12-31T16:15:29.440Z,483
2014-12-31T16:15:48.018Z,408
2014-12-31T16:16:06.396Z,490
2014-12-31T16:16:24.755Z,491
2014-12-31T16:16:43.052Z,478
2014-12-31T16:17:01.583Z,481
2014-12-31T16:17:20.478Z,405
2014-12-31T16:17:39.056Z,455
2014-12-31T16:17:57.666Z,444
2014-12-31T16:18:16.559Z,464
2014-12-31T16:18:34.950Z,471
2014-12-31T16:18:53.684Z,413
2014-12-31T16:19:11.577Z,396
2014-12-31T16:19:30.077Z,473
2014-12-31T16:19:48.530Z,422
2014-12-31T16:20:07.079Z,462
2014-12-31T16:20:25.813Z,414
2014-12-31T16:20:44.204Z,410
2014-12-31T16:21:02.610Z,395
2014-12-31T16:21:21.285Z,439
2014-12-31T16:21:40.066Z,472
2014-12-31T16:21:57.832Z,481
2014-12-31T16:22:16.304Z,471
2014-12-31T16:22:34.350Z,457
2014-12-31T16:22:52.960Z,439
2014-12-31T16:23:11.507Z,445
2014-12-31T16:23:30.009Z,488
2014-12-31T16:23:48.634Z,446
2014-12-31T16:24:07.587Z,451
2014-12-31T16:24:25.979Z,413
2014-12-31T16:24:44.604Z,400
2014-12-31T16:25:02.964Z,469
2014-12-31T16:25:21.542Z,436
2014-12-31T16:25:39.920Z,477
2014-12-31T16:25:57.936Z,446
2014-12-31T16:26:16.373Z,423
2014-12-31T16:26:34.267Z,471
2014-12-31T16:26:52.626Z,442
2014-12-31T16:27:11.095Z,464
2014-12-31T16:27:29.610Z,480
2014-12-31T16:27:48.236Z,405
2014-12-31T16:28:06.674Z,398
2014-12-31T16:28:25.049Z,442
2014-12-31T16:28:43.443Z,469
2014-12-31T16:29:02.099Z,443
2014-12-31T16:29:20.411Z,397
2014-12-31T16:29:38.974Z,480
2014-12-31T16:29:57.930Z,467
2014-12-31T16:30:16.242Z,403
2014-12-31T16:30:35.008Z,404
2014-12-31T16:30:53.354Z,428
2014-12-31T16:31:12.104Z,483
2014-12-31T16:31:30.463Z,443
2014-12-31T16:31:49.135Z,456
2014-12-31T16:32:07.529Z,415
2014-12-31T16:32:25.997Z,422
2014-12-31T16:32:43.685Z,452
2014-12-31T16:33:02.031Z,490
2014-12-31T16:33:20.624Z,478
2014-12-31T16:33:39.328Z,492
2014-12-31T16:33:58.296Z,445
2014-12-31T16:34:16.846Z,489
2014-12-31T16:34:35.315Z,494
2014-12-31T16:34:53.831Z,463
2014-12-31T16:35:12.348Z,447
2014-12-31T16:35:31.004Z,394
2014-12-31T16:35:49.473Z,472
2014-12-31T16:36:08.038Z,465
2014-12-31T16:36:26.116Z,440
2014-12-31T16:36:44.803Z,454
2014-12-31T16:37:03.506Z,439
2014-12-31T16:37:22.072Z,422
2014-12-31T16:37:40.822Z,411
2014-12-31T16:37:59.666Z,483
2014-12-31T16:38:18.121Z,403
